Terminal Aerodrome Forecast
Issued by NWS

Home | Current Version | Previous Version | Text Only | Print | Product List | Glossary On
Versions: 1 2 3 4 5 6 7 8 9 10 11 12 13 14
000
FTUS43 KEAX 152300
TAFMKC
TAF
KMKC 152332Z 1600/1624 12009KT P6SM SCT025 OVC035
     FM160700 13006KT 5SM BR OVC025
     FM161400 15006KT P6SM SCT025 BKN035=

USA.gov is the U.S. government's official web portal to all federal, state and local government web resources and services.